sensor_id;sensor_type;location;lat;lon;timestamp;P1;durP1;ratioP1;P2;durP2;ratioP2
32814;SDS011;19165;48.182;16.374;2022-07-01T00:07:50;7.38;;;6.68;;
32814;SDS011;19165;48.182;16.374;2022-07-01T00:10:16;8.05;;;6.20;;
32814;SDS011;19165;48.182;16.374;2022-07-01T00:12:42;8.00;;;6.22;;
32814;SDS011;19165;48.182;16.374;2022-07-01T00:15:08;7.55;;;6.43;;
32814;SDS011;19165;48.182;16.374;2022-07-01T00:17:35;8.77;;;6.47;;
32814;SDS011;19165;48.182;16.374;2022-07-01T00:20:01;7.90;;;6.50;;
32814;SDS011;19165;48.182;16.374;2022-07-01T00:22:28;9.77;;;6.32;;
32814;SDS011;19165;48.182;16.374;2022-07-01T00:24:54;10.00;;;6.75;;
32814;SDS011;19165;48.182;16.374;2022-07-01T00:27:20;7.13;;;6.38;;
32814;SDS011;19165;48.182;16.374;2022-07-01T00:29:47;10.68;;;6.70;;
32814;SDS011;19165;48.182;16.374;2022-07-01T00:32:13;10.52;;;6.43;;
32814;SDS011;19165;48.182;16.374;2022-07-01T00:34:39;12.52;;;6.78;;
32814;SDS011;19165;48.182;16.374;2022-07-01T00:37:05;11.98;;;6.40;;
32814;SDS011;19165;48.182;16.374;2022-07-01T00:39:32;10.52;;;6.95;;
32814;SDS011;19165;48.182;16.374;2022-07-01T00:41:59;10.80;;;6.80;;
32814;SDS011;19165;48.182;16.374;2022-07-01T00:44:26;12.38;;;6.07;;
32814;SDS011;19165;48.182;16.374;2022-07-01T00:46:52;7.85;;;6.22;;
32814;SDS011;19165;48.182;16.374;2022-07-01T00:49:19;10.40;;;7.03;;
32814;SDS011;19165;48.182;16.374;2022-07-01T00:51:46;7.32;;;6.57;;
32814;SDS011;19165;48.182;16.374;2022-07-01T00:54:13;10.98;;;6.88;;
32814;SDS011;19165;48.182;16.374;2022-07-01T00:56:40;7.65;;;6.85;;
32814;SDS011;19165;48.182;16.374;2022-07-01T00:59:07;10.27;;;7.28;;
32814;SDS011;19165;48.182;16.374;2022-07-01T01:01:33;9.25;;;7.28;;
32814;SDS011;19165;48.182;16.374;2022-07-01T01:03:59;10.38;;;7.47;;
32814;SDS011;19165;48.182;16.374;2022-07-01T01:06:25;8.35;;;6.43;;
32814;SDS011;19165;48.182;16.374;2022-07-01T01:08:51;8.65;;;7.10;;
32814;SDS011;19165;48.182;16.374;2022-07-01T01:11:17;12.27;;;6.95;;
32814;SDS011;19165;48.182;16.374;2022-07-01T01:13:46;8.60;;;6.80;;
32814;SDS011;19165;48.182;16.374;2022-07-01T01:16:15;8.38;;;7.13;;
32814;SDS011;19165;48.182;16.374;2022-07-01T01:18:42;8.73;;;7.28;;
32814;SDS011;19165;48.182;16.374;2022-07-01T01:21:10;9.63;;;7.32;;
32814;SDS011;19165;48.182;16.374;2022-07-01T01:23:35;9.20;;;7.30;;
32814;SDS011;19165;48.182;16.374;2022-07-01T01:26:02;9.15;;;6.95;;
32814;SDS011;19165;48.182;16.374;2022-07-01T01:28:28;7.90;;;7.10;;
32814;SDS011;19165;48.182;16.374;2022-07-01T01:30:54;10.00;;;7.30;;
32814;SDS011;19165;48.182;16.374;2022-07-01T01:33:20;9.63;;;7.00;;
32814;SDS011;19165;48.182;16.374;2022-07-01T01:35:46;32.50;;;10.18;;
32814;SDS011;19165;48.182;16.374;2022-07-01T01:38:13;9.43;;;6.82;;
32814;SDS011;19165;48.182;16.374;2022-07-01T01:40:39;8.40;;;6.55;;
32814;SDS011;19165;48.182;16.374;2022-07-01T01:43:05;8.13;;;7.25;;
32814;SDS011;19165;48.182;16.374;2022-07-01T01:45:31;9.00;;;7.03;;
32814;SDS011;19165;48.182;16.374;2022-07-01T01:47:57;13.05;;;6.93;;
32814;SDS011;19165;48.182;16.374;2022-07-01T01:50:23;10.95;;;7.05;;
32814;SDS011;19165;48.182;16.374;2022-07-01T01:52:49;10.20;;;7.00;;
32814;SDS011;19165;48.182;16.374;2022-07-01T01:55:16;8.25;;;6.82;;
32814;SDS011;19165;48.182;16.374;2022-07-01T01:57:42;7.65;;;6.70;;
32814;SDS011;19165;48.182;16.374;2022-07-01T02:00:08;8.57;;;6.50;;
32814;SDS011;19165;48.182;16.374;2022-07-01T02:02:38;12.63;;;6.60;;
32814;SDS011;19165;48.182;16.374;2022-07-01T02:05:04;8.93;;;6.68;;
32814;SDS011;19165;48.182;16.374;2022-07-01T02:07:32;10.55;;;7.10;;
32814;SDS011;19165;48.182;16.374;2022-07-01T02:09:57;10.73;;;7.70;;
32814;SDS011;19165;48.182;16.374;2022-07-01T02:12:25;11.15;;;7.13;;
32814;SDS011;19165;48.182;16.374;2022-07-01T02:14:51;10.27;;;6.47;;
32814;SDS011;19165;48.182;16.374;2022-07-01T02:17:16;10.50;;;6.40;;
32814;SDS011;19165;48.182;16.374;2022-07-01T02:19:42;9.07;;;6.68;;
32814;SDS011;19165;48.182;16.374;2022-07-01T02:22:08;12.25;;;6.30;;
32814;SDS011;19165;48.182;16.374;2022-07-01T02:24:34;13.48;;;6.18;;
32814;SDS011;19165;48.182;16.374;2022-07-01T02:27:00;6.50;;;5.90;;
32814;SDS011;19165;48.182;16.374;2022-07-01T02:29:27;6.50;;;5.82;;
32814;SDS011;19165;48.182;16.374;2022-07-01T02:31:53;9.48;;;6.30;;
32814;SDS011;19165;48.182;16.374;2022-07-01T02:34:19;8.73;;;6.10;;
32814;SDS011;19165;48.182;16.374;2022-07-01T02:36:45;7.15;;;6.00;;
32814;SDS011;19165;48.182;16.374;2022-07-01T02:39:11;10.75;;;5.57;;
32814;SDS011;19165;48.182;16.374;2022-07-01T02:41:37;6.07;;;5.20;;
32814;SDS011;19165;48.182;16.374;2022-07-01T02:44:23;6.85;;;6.03;;
32814;SDS011;19165;48.182;16.374;2022-07-01T02:46:50;7.50;;;6.07;;
32814;SDS011;19165;48.182;16.374;2022-07-01T02:49:16;7.55;;;5.35;;
32814;SDS011;19165;48.182;16.374;2022-07-01T02:51:42;6.93;;;5.03;;
32814;SDS011;19165;48.182;16.374;2022-07-01T02:54:08;7.78;;;5.20;;
32814;SDS011;19165;48.182;16.374;2022-07-01T02:56:34;8.95;;;5.13;;
32814;SDS011;19165;48.182;16.374;2022-07-01T02:58:59;7.68;;;5.28;;
32814;SDS011;19165;48.182;16.374;2022-07-01T03:01:25;8.50;;;5.18;;
32814;SDS011;19165;48.182;16.374;2022-07-01T03:03:53;9.70;;;5.15;;
32814;SDS011;19165;48.182;16.374;2022-07-01T03:06:19;7.38;;;5.07;;
32814;SDS011;19165;48.182;16.374;2022-07-01T03:08:45;7.10;;;4.97;;
32814;SDS011;19165;48.182;16.374;2022-07-01T03:11:11;6.60;;;4.50;;
32814;SDS011;19165;48.182;16.374;2022-07-01T03:13:36;6.47;;;4.72;;
32814;SDS011;19165;48.182;16.374;2022-07-01T03:16:03;7.07;;;5.60;;
32814;SDS011;19165;48.182;16.374;2022-07-01T03:18:29;6.05;;;4.97;;
32814;SDS011;19165;48.182;16.374;2022-07-01T03:20:56;7.68;;;4.80;;
32814;SDS011;19165;48.182;16.374;2022-07-01T03:23:22;6.47;;;4.38;;
32814;SDS011;19165;48.182;16.374;2022-07-01T03:25:48;5.95;;;5.07;;
32814;SDS011;19165;48.182;16.374;2022-07-01T03:28:14;10.02;;;5.07;;
32814;SDS011;19165;48.182;16.374;2022-07-01T03:30:40;7.38;;;4.63;;
32814;SDS011;19165;48.182;16.374;2022-07-01T03:33:06;6.72;;;4.60;;
32814;SDS011;19165;48.182;16.374;2022-07-01T03:35:32;7.55;;;5.00;;
32814;SDS011;19165;48.182;16.374;2022-07-01T03:38:02;7.32;;;4.60;;
32814;SDS011;19165;48.182;16.374;2022-07-01T03:40:28;7.30;;;4.70;;
32814;SDS011;19165;48.182;16.374;2022-07-01T03:42:55;7.07;;;5.10;;
32814;SDS011;19165;48.182;16.374;2022-07-01T03:45:21;7.30;;;4.65;;
32814;SDS011;19165;48.182;16.374;2022-07-01T03:47:47;7.32;;;4.60;;
32814;SDS011;19165;48.182;16.374;2022-07-01T03:50:14;8.38;;;4.60;;
32814;SDS011;19165;48.182;16.374;2022-07-01T03:52:40;9.90;;;5.03;;
32814;SDS011;19165;48.182;16.374;2022-07-01T03:55:08;7.15;;;4.60;;
32814;SDS011;19165;48.182;16.374;2022-07-01T03:57:34;4.57;;;4.10;;
32814;SDS011;19165;48.182;16.374;2022-07-01T04:00:00;7.57;;;4.75;;
32814;SDS011;19165;48.182;16.374;2022-07-01T04:02:26;7.95;;;5.03;;
32814;SDS011;19165;48.182;16.374;2022-07-01T04:04:52;8.45;;;4.38;;
32814;SDS011;19165;48.182;16.374;2022-07-01T04:07:20;6.80;;;4.72;;
32814;SDS011;19165;48.182;16.374;2022-07-01T04:09:47;7.55;;;4.75;;
32814;SDS011;19165;48.182;16.374;2022-07-01T04:12:14;11.02;;;4.90;;
32814;SDS011;19165;48.182;16.374;2022-07-01T04:14:40;10.68;;;4.22;;
32814;SDS011;19165;48.182;16.374;2022-07-01T04:17:06;15.75;;;4.40;;
32814;SDS011;19165;48.182;16.374;2022-07-01T04:19:32;6.07;;;4.03;;
32814;SDS011;19165;48.182;16.374;2022-07-01T04:21:59;5.80;;;3.72;;
32814;SDS011;19165;48.182;16.374;2022-07-01T04:24:44;7.10;;;3.90;;
32814;SDS011;19165;48.182;16.374;2022-07-01T04:27:09;5.82;;;4.03;;
32814;SDS011;19165;48.182;16.374;2022-07-01T04:29:37;5.25;;;3.58;;
32814;SDS011;19165;48.182;16.374;2022-07-01T04:32:05;14.82;;;4.22;;
32814;SDS011;19165;48.182;16.374;2022-07-01T04:34:31;8.60;;;3.45;;
32814;SDS011;19165;48.182;16.374;2022-07-01T04:36:57;19.55;;;5.05;;
32814;SDS011;19165;48.182;16.374;2022-07-01T04:39:23;10.60;;;3.95;;
32814;SDS011;19165;48.182;16.374;2022-07-01T04:41:49;11.88;;;4.05;;
32814;SDS011;19165;48.182;16.374;2022-07-01T04:44:24;12.90;;;4.20;;
32814;SDS011;19165;48.182;16.374;2022-07-01T04:46:52;6.30;;;4.05;;
32814;SDS011;19165;48.182;16.374;2022-07-01T04:49:18;6.88;;;3.95;;
32814;SDS011;19165;48.182;16.374;2022-07-01T04:51:44;9.68;;;4.20;;
32814;SDS011;19165;48.182;16.374;2022-07-01T04:54:10;8.68;;;4.15;;
32814;SDS011;19165;48.182;16.374;2022-07-01T04:56:36;7.57;;;4.00;;
32814;SDS011;19165;48.182;16.374;2022-07-01T04:59:03;6.93;;;3.83;;
32814;SDS011;19165;48.182;16.374;2022-07-01T05:01:29;6.18;;;3.97;;
32814;SDS011;19165;48.182;16.374;2022-07-01T05:03:56;6.50;;;4.05;;
32814;SDS011;19165;48.182;16.374;2022-07-01T05:06:23;5.07;;;3.22;;
32814;SDS011;19165;48.182;16.374;2022-07-01T05:08:49;6.53;;;3.80;;
32814;SDS011;19165;48.182;16.374;2022-07-01T05:11:15;5.72;;;3.80;;
32814;SDS011;19165;48.182;16.374;2022-07-01T05:13:41;9.90;;;3.58;;
32814;SDS011;19165;48.182;16.374;2022-07-01T05:16:07;7.80;;;2.95;;
32814;SDS011;19165;48.182;16.374;2022-07-01T05:18:36;7.10;;;2.88;;
32814;SDS011;19165;48.182;16.374;2022-07-01T05:21:29;5.38;;;2.88;;
32814;SDS011;19165;48.182;16.374;2022-07-01T05:24:14;7.72;;;2.92;;
32814;SDS011;19165;48.182;16.374;2022-07-01T05:26:40;8.00;;;2.63;;
32814;SDS011;19165;48.182;16.374;2022-07-01T05:29:06;10.00;;;2.60;;
32814;SDS011;19165;48.182;16.374;2022-07-01T05:31:31;12.40;;;2.10;;
32814;SDS011;19165;48.182;16.374;2022-07-01T05:33:58;14.65;;;2.40;;
32814;SDS011;19165;48.182;16.374;2022-07-01T05:36:24;15.93;;;2.47;;
32814;SDS011;19165;48.182;16.374;2022-07-01T05:38:51;24.73;;;2.35;;
32814;SDS011;19165;48.182;16.374;2022-07-01T05:41:17;21.38;;;2.40;;
32814;SDS011;19165;48.182;16.374;2022-07-01T05:43:44;23.55;;;2.08;;
32814;SDS011;19165;48.182;16.374;2022-07-01T05:46:10;15.10;;;2.00;;
32814;SDS011;19165;48.182;16.374;2022-07-01T05:48:36;5.95;;;1.50;;
32814;SDS011;19165;48.182;16.374;2022-07-01T05:51:02;8.27;;;2.05;;
32814;SDS011;19165;48.182;16.374;2022-07-01T05:53:28;12.57;;;1.90;;
32814;SDS011;19165;48.182;16.374;2022-07-01T05:55:55;4.57;;;1.38;;
32814;SDS011;19165;48.182;16.374;2022-07-01T05:58:21;9.80;;;2.03;;
32814;SDS011;19165;48.182;16.374;2022-07-01T06:00:47;17.92;;;2.10;;
32814;SDS011;19165;48.182;16.374;2022-07-01T06:03:13;27.35;;;2.70;;
32814;SDS011;19165;48.182;16.374;2022-07-01T06:05:40;6.90;;;1.83;;
32814;SDS011;19165;48.182;16.374;2022-07-01T06:08:07;12.10;;;1.90;;
32814;SDS011;19165;48.182;16.374;2022-07-01T06:10:33;7.35;;;1.90;;
32814;SDS011;19165;48.182;16.374;2022-07-01T06:13:00;39.75;;;3.30;;
32814;SDS011;19165;48.182;16.374;2022-07-01T06:15:27;21.45;;;1.80;;
32814;SDS011;19165;48.182;16.374;2022-07-01T06:17:53;18.63;;;2.20;;
32814;SDS011;19165;48.182;16.374;2022-07-01T06:20:19;6.97;;;1.67;;
32814;SDS011;19165;48.182;16.374;2022-07-01T06:22:45;10.10;;;2.40;;
32814;SDS011;19165;48.182;16.374;2022-07-01T06:25:11;7.10;;;2.28;;
32814;SDS011;19165;48.182;16.374;2022-07-01T06:27:38;11.20;;;2.30;;
32814;SDS011;19165;48.182;16.374;2022-07-01T06:30:06;12.88;;;2.58;;
32814;SDS011;19165;48.182;16.374;2022-07-01T06:32:33;18.58;;;2.40;;
32814;SDS011;19165;48.182;16.374;2022-07-01T06:34:59;5.50;;;2.58;;
32814;SDS011;19165;48.182;16.374;2022-07-01T06:37:26;8.68;;;2.20;;
32814;SDS011;19165;48.182;16.374;2022-07-01T06:39:52;5.70;;;2.38;;
32814;SDS011;19165;48.182;16.374;2022-07-01T06:42:18;13.25;;;2.60;;
32814;SDS011;19165;48.182;16.374;2022-07-01T06:44:44;15.30;;;2.42;;
32814;SDS011;19165;48.182;16.374;2022-07-01T06:47:11;12.00;;;2.58;;
32814;SDS011;19165;48.182;16.374;2022-07-01T06:49:37;5.50;;;2.25;;
32814;SDS011;19165;48.182;16.374;2022-07-01T06:52:05;11.27;;;2.67;;
32814;SDS011;19165;48.182;16.374;2022-07-01T06:54:31;14.55;;;3.35;;
32814;SDS011;19165;48.182;16.374;2022-07-01T06:56:57;6.72;;;2.65;;
32814;SDS011;19165;48.182;16.374;2022-07-01T06:59:23;5.70;;;2.15;;
32814;SDS011;19165;48.182;16.374;2022-07-01T07:01:48;6.95;;;2.58;;
32814;SDS011;19165;48.182;16.374;2022-07-01T07:04:16;12.18;;;2.70;;
32814;SDS011;19165;48.182;16.374;2022-07-01T07:06:42;11.32;;;2.88;;
32814;SDS011;19165;48.182;16.374;2022-07-01T07:09:08;7.35;;;2.53;;
32814;SDS011;19165;48.182;16.374;2022-07-01T07:11:33;7.68;;;2.53;;
32814;SDS011;19165;48.182;16.374;2022-07-01T07:13:59;9.15;;;2.97;;
32814;SDS011;19165;48.182;16.374;2022-07-01T07:16:25;7.13;;;2.63;;
32814;SDS011;19165;48.182;16.374;2022-07-01T07:18:51;7.78;;;2.90;;
32814;SDS011;19165;48.182;16.374;2022-07-01T07:21:19;10.02;;;2.95;;
32814;SDS011;19165;48.182;16.374;2022-07-01T07:23:45;10.38;;;3.63;;
32814;SDS011;19165;48.182;16.374;2022-07-01T07:26:11;7.45;;;3.05;;
32814;SDS011;19165;48.182;16.374;2022-07-01T07:28:37;18.52;;;3.67;;
32814;SDS011;19165;48.182;16.374;2022-07-01T07:31:03;8.43;;;2.90;;
32814;SDS011;19165;48.182;16.374;2022-07-01T07:33:30;6.28;;;2.55;;
32814;SDS011;19165;48.182;16.374;2022-07-01T07:35:56;8.27;;;3.08;;
32814;SDS011;19165;48.182;16.374;2022-07-01T07:38:23;9.63;;;2.78;;
32814;SDS011;19165;48.182;16.374;2022-07-01T07:40:49;16.20;;;3.80;;
32814;SDS011;19165;48.182;16.374;2022-07-01T07:43:15;10.05;;;3.80;;
32814;SDS011;19165;48.182;16.374;2022-07-01T07:45:41;16.92;;;3.85;;
32814;SDS011;19165;48.182;16.374;2022-07-01T07:48:07;10.55;;;3.40;;
32814;SDS011;19165;48.182;16.374;2022-07-01T07:50:35;15.82;;;3.80;;
32814;SDS011;19165;48.182;16.374;2022-07-01T07:53:01;8.45;;;3.30;;
32814;SDS011;19165;48.182;16.374;2022-07-01T07:55:28;14.10;;;3.47;;
32814;SDS011;19165;48.182;16.374;2022-07-01T07:57:54;6.15;;;3.58;;
32814;SDS011;19165;48.182;16.374;2022-07-01T08:00:20;6.15;;;3.25;;
32814;SDS011;19165;48.182;16.374;2022-07-01T08:02:46;6.22;;;3.53;;
32814;SDS011;19165;48.182;16.374;2022-07-01T08:05:12;7.80;;;3.10;;
32814;SDS011;19165;48.182;16.374;2022-07-01T08:07:39;8.50;;;3.83;;
32814;SDS011;19165;48.182;16.374;2022-07-01T08:10:06;17.00;;;4.05;;
32814;SDS011;19165;48.182;16.374;2022-07-01T08:12:35;9.80;;;3.50;;
32814;SDS011;19165;48.182;16.374;2022-07-01T08:15:01;9.70;;;3.47;;
32814;SDS011;19165;48.182;16.374;2022-07-01T08:17:27;13.43;;;3.85;;
32814;SDS011;19165;48.182;16.374;2022-07-01T08:19:54;13.52;;;3.70;;
32814;SDS011;19165;48.182;16.374;2022-07-01T08:22:19;12.77;;;3.67;;
32814;SDS011;19165;48.182;16.374;2022-07-01T08:24:45;10.10;;;3.63;;
32814;SDS011;19165;48.182;16.374;2022-07-01T08:27:11;8.60;;;3.20;;
32814;SDS011;19165;48.182;16.374;2022-07-01T08:29:39;7.63;;;3.40;;
32814;SDS011;19165;48.182;16.374;2022-07-01T08:32:05;14.35;;;3.78;;
32814;SDS011;19165;48.182;16.374;2022-07-01T08:34:32;7.13;;;3.50;;
32814;SDS011;19165;48.182;16.374;2022-07-01T08:36:59;7.22;;;3.25;;
32814;SDS011;19165;48.182;16.374;2022-07-01T08:39:26;9.02;;;3.50;;
32814;SDS011;19165;48.182;16.374;2022-07-01T08:41:52;10.70;;;4.00;;
32814;SDS011;19165;48.182;16.374;2022-07-01T08:44:18;8.93;;;3.70;;
32814;SDS011;19165;48.182;16.374;2022-07-01T08:46:45;8.07;;;3.90;;
32814;SDS011;19165;48.182;16.374;2022-07-01T08:49:11;10.25;;;3.90;;
32814;SDS011;19165;48.182;16.374;2022-07-01T08:51:38;8.55;;;3.55;;
32814;SDS011;19165;48.182;16.374;2022-07-01T08:54:04;6.82;;;3.70;;
32814;SDS011;19165;48.182;16.374;2022-07-01T08:56:30;12.30;;;3.65;;
32814;SDS011;19165;48.182;16.374;2022-07-01T08:59:21;10.70;;;3.72;;
32814;SDS011;19165;48.182;16.374;2022-07-01T09:01:55;8.35;;;3.63;;
32814;SDS011;19165;48.182;16.374;2022-07-01T09:04:22;19.25;;;4.82;;
32814;SDS011;19165;48.182;16.374;2022-07-01T09:06:48;9.15;;;3.90;;
32814;SDS011;19165;48.182;16.374;2022-07-01T09:09:16;11.60;;;3.50;;
32814;SDS011;19165;48.182;16.374;2022-07-01T09:11:46;10.10;;;3.60;;
32814;SDS011;19165;48.182;16.374;2022-07-01T09:14:18;11.55;;;3.88;;
32814;SDS011;19165;48.182;16.374;2022-07-01T09:16:46;11.32;;;3.53;;
32814;SDS011;19165;48.182;16.374;2022-07-01T09:19:17;12.18;;;3.80;;
32814;SDS011;19165;48.182;16.374;2022-07-01T09:21:47;12.50;;;3.58;;
32814;SDS011;19165;48.182;16.374;2022-07-01T09:24:24;8.82;;;3.58;;
32814;SDS011;19165;48.182;16.374;2022-07-01T09:26:52;5.53;;;3.17;;
32814;SDS011;19165;48.182;16.374;2022-07-01T09:29:24;7.90;;;3.33;;
32814;SDS011;19165;48.182;16.374;2022-07-01T09:31:52;8.77;;;3.50;;
32814;SDS011;19165;48.182;16.374;2022-07-01T09:34:19;11.20;;;3.65;;
32814;SDS011;19165;48.182;16.374;2022-07-01T09:36:51;6.82;;;3.40;;
32814;SDS011;19165;48.182;16.374;2022-07-01T09:41:43;7.97;;;3.75;;
32814;SDS011;19165;48.182;16.374;2022-07-01T09:44:09;7.25;;;3.70;;
32814;SDS011;19165;48.182;16.374;2022-07-01T09:46:36;6.35;;;3.30;;
32814;SDS011;19165;48.182;16.374;2022-07-01T09:49:02;7.47;;;3.78;;
32814;SDS011;19165;48.182;16.374;2022-07-01T09:51:29;4.72;;;3.05;;
32814;SDS011;19165;48.182;16.374;2022-07-01T09:53:55;9.50;;;4.85;;
32814;SDS011;19165;48.182;16.374;2022-07-01T09:56:22;10.55;;;3.70;;
32814;SDS011;19165;48.182;16.374;2022-07-01T09:58:48;4.72;;;3.60;;
32814;SDS011;19165;48.182;16.374;2022-07-01T10:01:14;6.07;;;3.90;;
32814;SDS011;19165;48.182;16.374;2022-07-01T10:03:40;8.10;;;4.05;;
32814;SDS011;19165;48.182;16.374;2022-07-01T10:09:09;6.63;;;3.97;;
32814;SDS011;19165;48.182;16.374;2022-07-01T10:14:56;7.07;;;3.55;;
32814;SDS011;19165;48.182;16.374;2022-07-01T10:17:28;8.38;;;3.78;;
32814;SDS011;19165;48.182;16.374;2022-07-01T10:19:55;6.85;;;4.32;;
32814;SDS011;19165;48.182;16.374;2022-07-01T10:22:27;4.97;;;3.30;;
32814;SDS011;19165;48.182;16.374;2022-07-01T10:24:54;9.35;;;3.60;;
32814;SDS011;19165;48.182;16.374;2022-07-01T10:27:20;6.60;;;3.88;;
32814;SDS011;19165;48.182;16.374;2022-07-01T10:29:48;5.93;;;3.50;;
32814;SDS011;19165;48.182;16.374;2022-07-01T10:32:26;5.75;;;3.10;;
32814;SDS011;19165;48.182;16.374;2022-07-01T10:35:02;3.72;;;3.17;;
32814;SDS011;19165;48.182;16.374;2022-07-01T10:37:31;6.55;;;3.13;;
32814;SDS011;19165;48.182;16.374;2022-07-01T10:39:57;8.10;;;3.45;;
32814;SDS011;19165;48.182;16.374;2022-07-01T10:42:27;6.50;;;2.90;;
32814;SDS011;19165;48.182;16.374;2022-07-01T10:45:04;3.90;;;2.92;;
32814;SDS011;19165;48.182;16.374;2022-07-01T10:47:32;5.53;;;3.42;;
32814;SDS011;19165;48.182;16.374;2022-07-01T10:49:59;6.65;;;2.90;;
32814;SDS011;19165;48.182;16.374;2022-07-01T10:52:28;5.93;;;2.80;;
32814;SDS011;19165;48.182;16.374;2022-07-01T10:54:56;8.75;;;3.03;;
32814;SDS011;19165;48.182;16.374;2022-07-01T10:57:26;3.38;;;3.03;;
32814;SDS011;19165;48.182;16.374;2022-07-01T11:02:22;5.97;;;3.33;;
32814;SDS011;19165;48.182;16.374;2022-07-01T11:04:50;6.65;;;3.30;;
32814;SDS011;19165;48.182;16.374;2022-07-01T11:07:17;6.63;;;3.00;;
32814;SDS011;19165;48.182;16.374;2022-07-01T11:09:45;7.82;;;3.40;;
32814;SDS011;19165;48.182;16.374;2022-07-01T11:12:14;6.45;;;2.55;;
32814;SDS011;19165;48.182;16.374;2022-07-01T11:14:42;4.40;;;2.80;;
32814;SDS011;19165;48.182;16.374;2022-07-01T11:17:08;4.82;;;2.80;;
32814;SDS011;19165;48.182;16.374;2022-07-01T11:19:34;7.32;;;3.00;;
32814;SDS011;19165;48.182;16.374;2022-07-01T11:22:01;4.90;;;2.67;;
32814;SDS011;19165;48.182;16.374;2022-07-01T11:24:28;4.40;;;2.90;;
32814;SDS011;19165;48.182;16.374;2022-07-01T11:26:57;6.95;;;2.80;;
32814;SDS011;19165;48.182;16.374;2022-07-01T11:29:26;4.22;;;2.60;;
32814;SDS011;19165;48.182;16.374;2022-07-01T11:31:53;5.20;;;3.08;;
32814;SDS011;19165;48.182;16.374;2022-07-01T11:34:20;12.18;;;3.20;;
32814;SDS011;19165;48.182;16.374;2022-07-01T11:36:46;4.85;;;2.70;;
32814;SDS011;19165;48.182;16.374;2022-07-01T11:39:31;9.98;;;3.03;;
32814;SDS011;19165;48.182;16.374;2022-07-01T11:42:01;5.72;;;3.22;;
32814;SDS011;19165;48.182;16.374;2022-07-01T11:44:30;3.58;;;2.65;;
32814;SDS011;19165;48.182;16.374;2022-07-01T11:46:57;5.45;;;3.08;;
32814;SDS011;19165;48.182;16.374;2022-07-01T11:49:23;4.75;;;3.20;;
32814;SDS011;19165;48.182;16.374;2022-07-01T11:51:56;4.75;;;2.90;;
32814;SDS011;19165;48.182;16.374;2022-07-01T11:54:23;4.60;;;2.72;;
32814;SDS011;19165;48.182;16.374;2022-07-01T11:56:50;4.57;;;2.80;;
32814;SDS011;19165;48.182;16.374;2022-07-01T11:59:17;4.97;;;2.92;;
32814;SDS011;19165;48.182;16.374;2022-07-01T12:01:50;3.80;;;2.90;;
32814;SDS011;19165;48.182;16.374;2022-07-01T12:04:17;4.90;;;3.10;;
32814;SDS011;19165;48.182;16.374;2022-07-01T12:06:43;4.05;;;2.92;;
32814;SDS011;19165;48.182;16.374;2022-07-01T12:09:11;7.40;;;2.75;;
32814;SDS011;19165;48.182;16.374;2022-07-01T12:11:38;4.82;;;3.13;;
32814;SDS011;19165;48.182;16.374;2022-07-01T12:14:08;8.00;;;3.80;;
32814;SDS011;19165;48.182;16.374;2022-07-01T12:16:39;4.90;;;3.20;;
32814;SDS011;19165;48.182;16.374;2022-07-01T12:19:05;3.90;;;3.13;;
32814;SDS011;19165;48.182;16.374;2022-07-01T12:21:36;3.75;;;3.33;;
32814;SDS011;19165;48.182;16.374;2022-07-01T12:24:14;9.10;;;3.42;;
32814;SDS011;19165;48.182;16.374;2022-07-01T12:26:48;6.03;;;3.40;;
32814;SDS011;19165;48.182;16.374;2022-07-01T12:29:16;4.65;;;3.13;;
32814;SDS011;19165;48.182;16.374;2022-07-01T12:31:44;9.23;;;3.75;;
32814;SDS011;19165;48.182;16.374;2022-07-01T12:34:23;4.80;;;3.53;;
32814;SDS011;19165;48.182;16.374;2022-07-01T12:37:01;5.90;;;3.33;;
32814;SDS011;19165;48.182;16.374;2022-07-01T12:39:27;5.72;;;3.60;;
32814;SDS011;19165;48.182;16.374;2022-07-01T12:41:53;4.28;;;3.30;;
32814;SDS011;19165;48.182;16.374;2022-07-01T12:44:19;5.47;;;4.15;;
32814;SDS011;19165;48.182;16.374;2022-07-01T12:46:48;8.90;;;3.80;;
32814;SDS011;19165;48.182;16.374;2022-07-01T12:49:18;6.18;;;3.53;;
32814;SDS011;19165;48.182;16.374;2022-07-01T12:51:45;4.78;;;3.35;;
32814;SDS011;19165;48.182;16.374;2022-07-01T12:56:56;6.50;;;3.42;;
32814;SDS011;19165;48.182;16.374;2022-07-01T12:59:22;4.65;;;3.33;;
32814;SDS011;19165;48.182;16.374;2022-07-01T13:01:50;10.43;;;3.25;;
32814;SDS011;19165;48.182;16.374;2022-07-01T13:04:22;3.47;;;2.72;;
32814;SDS011;19165;48.182;16.374;2022-07-01T13:06:49;9.23;;;3.45;;
32814;SDS011;19165;48.182;16.374;2022-07-01T13:09:15;6.93;;;3.20;;
32814;SDS011;19165;48.182;16.374;2022-07-01T13:11:40;4.80;;;3.30;;
32814;SDS011;19165;48.182;16.374;2022-07-01T13:14:06;9.23;;;3.13;;
32814;SDS011;19165;48.182;16.374;2022-07-01T13:16:32;5.05;;;3.28;;
32814;SDS011;19165;48.182;16.374;2022-07-01T13:19:00;6.53;;;3.80;;
32814;SDS011;19165;48.182;16.374;2022-07-01T13:21:25;6.68;;;3.63;;
32814;SDS011;19165;48.182;16.374;2022-07-01T13:23:51;8.65;;;4.10;;
32814;SDS011;19165;48.182;16.374;2022-07-01T13:26:17;6.07;;;3.53;;
32814;SDS011;19165;48.182;16.374;2022-07-01T13:28:44;7.38;;;3.72;;
32814;SDS011;19165;48.182;16.374;2022-07-01T13:31:09;10.73;;;4.13;;
32814;SDS011;19165;48.182;16.374;2022-07-01T13:33:35;7.88;;;3.50;;
32814;SDS011;19165;48.182;16.374;2022-07-01T13:36:03;3.80;;;3.15;;
32814;SDS011;19165;48.182;16.374;2022-07-01T13:38:29;4.93;;;3.30;;
32814;SDS011;19165;48.182;16.374;2022-07-01T13:40:55;6.43;;;3.55;;
32814;SDS011;19165;48.182;16.374;2022-07-01T13:43:21;7.15;;;3.30;;
32814;SDS011;19165;48.182;16.374;2022-07-01T13:45:47;6.20;;;3.70;;
32814;SDS011;19165;48.182;16.374;2022-07-01T13:48:12;13.35;;;3.60;;
32814;SDS011;19165;48.182;16.374;2022-07-01T13:50:38;6.80;;;3.50;;
32814;SDS011;19165;48.182;16.374;2022-07-01T13:53:06;3.97;;;2.88;;
32814;SDS011;19165;48.182;16.374;2022-07-01T13:55:32;8.88;;;3.38;;
32814;SDS011;19165;48.182;16.374;2022-07-01T13:57:58;6.03;;;3.60;;
32814;SDS011;19165;48.182;16.374;2022-07-01T14:00:24;13.30;;;3.72;;
32814;SDS011;19165;48.182;16.374;2022-07-01T14:02:50;5.38;;;3.67;;
32814;SDS011;19165;48.182;16.374;2022-07-01T14:05:16;9.60;;;3.53;;
32814;SDS011;19165;48.182;16.374;2022-07-01T14:07:42;5.60;;;3.47;;
32814;SDS011;19165;48.182;16.374;2022-07-01T14:10:09;5.50;;;3.42;;
32814;SDS011;19165;48.182;16.374;2022-07-01T14:12:35;5.85;;;3.28;;
32814;SDS011;19165;48.182;16.374;2022-07-01T14:15:02;8.23;;;4.13;;
32814;SDS011;19165;48.182;16.374;2022-07-01T14:17:28;7.25;;;3.58;;
32814;SDS011;19165;48.182;16.374;2022-07-01T14:19:54;7.70;;;3.70;;
32814;SDS011;19165;48.182;16.374;2022-07-01T14:22:22;5.82;;;3.65;;
32814;SDS011;19165;48.182;16.374;2022-07-01T14:24:48;7.15;;;3.78;;
32814;SDS011;19165;48.182;16.374;2022-07-01T14:27:16;7.15;;;3.92;;
32814;SDS011;19165;48.182;16.374;2022-07-01T14:29:42;6.72;;;3.70;;
32814;SDS011;19165;48.182;16.374;2022-07-01T14:32:08;10.20;;;4.57;;
32814;SDS011;19165;48.182;16.374;2022-07-01T14:34:33;5.60;;;3.15;;
32814;SDS011;19165;48.182;16.374;2022-07-01T14:36:59;5.38;;;3.72;;
32814;SDS011;19165;48.182;16.374;2022-07-01T14:39:25;6.72;;;3.83;;
32814;SDS011;19165;48.182;16.374;2022-07-01T14:41:51;8.35;;;3.95;;
32814;SDS011;19165;48.182;16.374;2022-07-01T14:44:19;6.35;;;4.10;;
32814;SDS011;19165;48.182;16.374;2022-07-01T14:46:45;9.00;;;4.07;;
32814;SDS011;19165;48.182;16.374;2022-07-01T14:49:11;6.00;;;3.45;;
32814;SDS011;19165;48.182;16.374;2022-07-01T14:51:40;9.68;;;4.00;;